sensor_id;sensor_type;location;lat;lon;timestamp;P1;durP1;ratioP1;P2;durP2;ratioP2
58768;SDS011;44536;47.474;19.056;2023-01-08T00:01:44;42.78;;;21.45;;
58768;SDS011;44536;47.474;19.056;2023-01-08T00:04:46;44.05;;;21.15;;
58768;SDS011;44536;47.474;19.056;2023-01-08T00:07:49;53.55;;;22.48;;
58768;SDS011;44536;47.474;19.056;2023-01-08T00:10:54;36.95;;;19.75;;
58768;SDS011;44536;47.474;19.056;2023-01-08T00:13:57;41.00;;;20.85;;
58768;SDS011;44536;47.474;19.056;2023-01-08T00:16:59;43.13;;;20.90;;
58768;SDS011;44536;47.474;19.056;2023-01-08T00:20:03;38.83;;;20.50;;
58768;SDS011;44536;47.474;19.056;2023-01-08T00:23:09;49.28;;;22.50;;
58768;SDS011;44536;47.474;19.056;2023-01-08T00:26:12;43.05;;;21.15;;
58768;SDS011;44536;47.474;19.056;2023-01-08T00:29:16;45.58;;;21.67;;
58768;SDS011;44536;47.474;19.056;2023-01-08T00:32:18;40.50;;;22.55;;
58768;SDS011;44536;47.474;19.056;2023-01-08T00:35:20;40.92;;;22.70;;
58768;SDS011;44536;47.474;19.056;2023-01-08T00:38:26;40.67;;;23.15;;
58768;SDS011;44536;47.474;19.056;2023-01-08T00:41:30;42.42;;;22.13;;
58768;SDS011;44536;47.474;19.056;2023-01-08T00:44:32;45.12;;;22.75;;
58768;SDS011;44536;47.474;19.056;2023-01-08T00:47:34;39.00;;;20.00;;
58768;SDS011;44536;47.474;19.056;2023-01-08T00:50:37;37.80;;;18.83;;
58768;SDS011;44536;47.474;19.056;2023-01-08T00:53:39;38.45;;;20.27;;
58768;SDS011;44536;47.474;19.056;2023-01-08T00:56:41;39.55;;;18.85;;
58768;SDS011;44536;47.474;19.056;2023-01-08T00:59:44;39.65;;;19.90;;
58768;SDS011;44536;47.474;19.056;2023-01-08T01:02:46;44.17;;;24.17;;
58768;SDS011;44536;47.474;19.056;2023-01-08T01:05:49;42.53;;;21.75;;
58768;SDS011;44536;47.474;19.056;2023-01-08T01:08:51;40.25;;;21.75;;
58768;SDS011;44536;47.474;19.056;2023-01-08T01:11:54;40.90;;;22.33;;
58768;SDS011;44536;47.474;19.056;2023-01-08T01:14:56;39.05;;;18.48;;
58768;SDS011;44536;47.474;19.056;2023-01-08T01:17:59;39.33;;;19.92;;
58768;SDS011;44536;47.474;19.056;2023-01-08T01:21:01;40.05;;;18.20;;
58768;SDS011;44536;47.474;19.056;2023-01-08T01:24:04;40.70;;;22.02;;
58768;SDS011;44536;47.474;19.056;2023-01-08T01:30:10;34.83;;;18.83;;
58768;SDS011;44536;47.474;19.056;2023-01-08T01:33:12;36.78;;;19.55;;
58768;SDS011;44536;47.474;19.056;2023-01-08T01:36:15;38.22;;;20.67;;
58768;SDS011;44536;47.474;19.056;2023-01-08T01:39:20;31.50;;;18.48;;
58768;SDS011;44536;47.474;19.056;2023-01-08T01:42:22;46.40;;;21.10;;
58768;SDS011;44536;47.474;19.056;2023-01-08T01:45:44;39.00;;;20.08;;
58768;SDS011;44536;47.474;19.056;2023-01-08T01:48:47;38.22;;;19.92;;
58768;SDS011;44536;47.474;19.056;2023-01-08T01:51:53;40.55;;;19.30;;
58768;SDS011;44536;47.474;19.056;2023-01-08T01:55:03;43.42;;;22.67;;
58768;SDS011;44536;47.474;19.056;2023-01-08T01:58:10;40.12;;;22.15;;
58768;SDS011;44536;47.474;19.056;2023-01-08T02:01:15;39.45;;;19.15;;
58768;SDS011;44536;47.474;19.056;2023-01-08T02:04:18;40.80;;;19.93;;
58768;SDS011;44536;47.474;19.056;2023-01-08T02:07:23;34.50;;;18.85;;
58768;SDS011;44536;47.474;19.056;2023-01-08T02:14:15;40.67;;;21.40;;
58768;SDS011;44536;47.474;19.056;2023-01-08T02:17:33;35.95;;;17.92;;
58768;SDS011;44536;47.474;19.056;2023-01-08T02:20:53;38.28;;;18.65;;
58768;SDS011;44536;47.474;19.056;2023-01-08T02:24:10;38.30;;;21.27;;
58768;SDS011;44536;47.474;19.056;2023-01-08T02:27:22;38.15;;;20.92;;
58768;SDS011;44536;47.474;19.056;2023-01-08T02:30:26;42.95;;;20.33;;
58768;SDS011;44536;47.474;19.056;2023-01-08T02:33:28;43.28;;;20.62;;
58768;SDS011;44536;47.474;19.056;2023-01-08T02:39:49;38.15;;;19.92;;
58768;SDS011;44536;47.474;19.056;2023-01-08T02:43:00;35.10;;;21.58;;
58768;SDS011;44536;47.474;19.056;2023-01-08T02:46:05;37.42;;;19.37;;
58768;SDS011;44536;47.474;19.056;2023-01-08T02:49:13;43.63;;;21.50;;
58768;SDS011;44536;47.474;19.056;2023-01-08T02:52:18;36.47;;;19.23;;
58768;SDS011;44536;47.474;19.056;2023-01-08T02:55:21;38.95;;;20.85;;
58768;SDS011;44536;47.474;19.056;2023-01-08T02:58:25;37.80;;;19.12;;
58768;SDS011;44536;47.474;19.056;2023-01-08T03:01:31;39.13;;;22.00;;
58768;SDS011;44536;47.474;19.056;2023-01-08T03:04:39;32.08;;;16.15;;
58768;SDS011;44536;47.474;19.056;2023-01-08T03:07:52;33.00;;;18.25;;
58768;SDS011;44536;47.474;19.056;2023-01-08T03:11:02;40.65;;;20.00;;
58768;SDS011;44536;47.474;19.056;2023-01-08T03:14:15;37.15;;;19.48;;
58768;SDS011;44536;47.474;19.056;2023-01-08T03:17:45;35.22;;;17.30;;
58768;SDS011;44536;47.474;19.056;2023-01-08T03:20:49;35.83;;;19.33;;
58768;SDS011;44536;47.474;19.056;2023-01-08T03:23:52;35.40;;;18.83;;
58768;SDS011;44536;47.474;19.056;2023-01-08T03:26:55;34.90;;;17.85;;
58768;SDS011;44536;47.474;19.056;2023-01-08T03:30:00;34.58;;;17.00;;
58768;SDS011;44536;47.474;19.056;2023-01-08T03:33:05;36.30;;;18.15;;
58768;SDS011;44536;47.474;19.056;2023-01-08T03:36:16;31.37;;;16.83;;
58768;SDS011;44536;47.474;19.056;2023-01-08T03:39:24;40.40;;;19.70;;
58768;SDS011;44536;47.474;19.056;2023-01-08T03:42:31;38.72;;;20.02;;
58768;SDS011;44536;47.474;19.056;2023-01-08T03:45:34;44.77;;;21.37;;
58768;SDS011;44536;47.474;19.056;2023-01-08T03:48:40;35.47;;;19.60;;
58768;SDS011;44536;47.474;19.056;2023-01-08T03:51:44;38.28;;;19.02;;
58768;SDS011;44536;47.474;19.056;2023-01-08T03:54:48;37.28;;;18.17;;
58768;SDS011;44536;47.474;19.056;2023-01-08T03:57:50;43.78;;;20.60;;
58768;SDS011;44536;47.474;19.056;2023-01-08T04:00:53;35.92;;;20.10;;
58768;SDS011;44536;47.474;19.056;2023-01-08T04:03:55;34.75;;;18.75;;
58768;SDS011;44536;47.474;19.056;2023-01-08T04:06:58;45.50;;;18.17;;
58768;SDS011;44536;47.474;19.056;2023-01-08T04:13:03;41.47;;;20.45;;
58768;SDS011;44536;47.474;19.056;2023-01-08T04:16:06;37.55;;;20.15;;
58768;SDS011;44536;47.474;19.056;2023-01-08T04:19:09;42.40;;;18.92;;
58768;SDS011;44536;47.474;19.056;2023-01-08T04:22:13;42.67;;;18.35;;
58768;SDS011;44536;47.474;19.056;2023-01-08T04:25:15;37.03;;;20.42;;
58768;SDS011;44536;47.474;19.056;2023-01-08T04:28:18;43.70;;;19.37;;
58768;SDS011;44536;47.474;19.056;2023-01-08T04:31:21;37.25;;;20.52;;
58768;SDS011;44536;47.474;19.056;2023-01-08T04:34:24;40.50;;;21.10;;
58768;SDS011;44536;47.474;19.056;2023-01-08T04:37:26;37.78;;;17.95;;
58768;SDS011;44536;47.474;19.056;2023-01-08T04:40:28;37.03;;;21.52;;
58768;SDS011;44536;47.474;19.056;2023-01-08T04:43:32;38.70;;;18.90;;
58768;SDS011;44536;47.474;19.056;2023-01-08T04:46:35;36.72;;;19.20;;
58768;SDS011;44536;47.474;19.056;2023-01-08T04:49:37;36.63;;;20.92;;
58768;SDS011;44536;47.474;19.056;2023-01-08T04:52:40;38.33;;;19.62;;
58768;SDS011;44536;47.474;19.056;2023-01-08T04:55:42;38.85;;;20.15;;
58768;SDS011;44536;47.474;19.056;2023-01-08T04:58:44;38.38;;;16.45;;
58768;SDS011;44536;47.474;19.056;2023-01-08T05:01:47;38.75;;;18.87;;
58768;SDS011;44536;47.474;19.056;2023-01-08T05:04:50;36.27;;;21.57;;
58768;SDS011;44536;47.474;19.056;2023-01-08T05:07:52;35.30;;;19.60;;
58768;SDS011;44536;47.474;19.056;2023-01-08T05:10:57;36.03;;;18.67;;
58768;SDS011;44536;47.474;19.056;2023-01-08T05:14:00;46.58;;;19.27;;
58768;SDS011;44536;47.474;19.056;2023-01-08T05:17:02;39.30;;;20.60;;
58768;SDS011;44536;47.474;19.056;2023-01-08T05:20:04;43.65;;;19.40;;
58768;SDS011;44536;47.474;19.056;2023-01-08T05:23:07;44.67;;;20.45;;
58768;SDS011;44536;47.474;19.056;2023-01-08T05:26:10;34.90;;;18.75;;
58768;SDS011;44536;47.474;19.056;2023-01-08T05:29:12;33.72;;;19.30;;
58768;SDS011;44536;47.474;19.056;2023-01-08T05:32:15;42.53;;;20.17;;
58768;SDS011;44536;47.474;19.056;2023-01-08T05:35:19;39.65;;;19.40;;
58768;SDS011;44536;47.474;19.056;2023-01-08T05:38:21;33.40;;;16.83;;
58768;SDS011;44536;47.474;19.056;2023-01-08T05:41:24;38.28;;;18.75;;
58768;SDS011;44536;47.474;19.056;2023-01-08T05:44:26;41.63;;;20.42;;
58768;SDS011;44536;47.474;19.056;2023-01-08T05:47:29;33.20;;;19.30;;
58768;SDS011;44536;47.474;19.056;2023-01-08T05:50:32;46.45;;;20.08;;
58768;SDS011;44536;47.474;19.056;2023-01-08T05:53:35;38.33;;;18.67;;
58768;SDS011;44536;47.474;19.056;2023-01-08T05:56:38;36.28;;;19.92;;
58768;SDS011;44536;47.474;19.056;2023-01-08T05:59:40;34.70;;;19.10;;
58768;SDS011;44536;47.474;19.056;2023-01-08T06:02:46;45.03;;;21.27;;
58768;SDS011;44536;47.474;19.056;2023-01-08T06:05:49;33.38;;;17.23;;
58768;SDS011;44536;47.474;19.056;2023-01-08T06:08:51;42.03;;;21.27;;
58768;SDS011;44536;47.474;19.056;2023-01-08T06:11:54;39.80;;;21.12;;
58768;SDS011;44536;47.474;19.056;2023-01-08T06:14:58;40.22;;;21.85;;
58768;SDS011;44536;47.474;19.056;2023-01-08T06:18:01;40.03;;;20.55;;
58768;SDS011;44536;47.474;19.056;2023-01-08T06:21:04;37.78;;;19.83;;
58768;SDS011;44536;47.474;19.056;2023-01-08T06:24:07;37.63;;;19.62;;
58768;SDS011;44536;47.474;19.056;2023-01-08T06:27:09;39.47;;;21.15;;
58768;SDS011;44536;47.474;19.056;2023-01-08T06:30:11;39.65;;;21.37;;
58768;SDS011;44536;47.474;19.056;2023-01-08T06:33:14;36.17;;;20.98;;
58768;SDS011;44536;47.474;19.056;2023-01-08T06:36:16;33.65;;;20.30;;
58768;SDS011;44536;47.474;19.056;2023-01-08T06:39:18;39.55;;;20.90;;
58768;SDS011;44536;47.474;19.056;2023-01-08T06:42:21;37.95;;;20.30;;
58768;SDS011;44536;47.474;19.056;2023-01-08T06:45:23;32.55;;;17.58;;
58768;SDS011;44536;47.474;19.056;2023-01-08T06:48:26;32.05;;;19.42;;
58768;SDS011;44536;47.474;19.056;2023-01-08T06:51:28;41.30;;;21.20;;
58768;SDS011;44536;47.474;19.056;2023-01-08T06:54:30;38.08;;;19.65;;
58768;SDS011;44536;47.474;19.056;2023-01-08T06:57:33;37.35;;;21.12;;
58768;SDS011;44536;47.474;19.056;2023-01-08T07:00:35;38.28;;;20.95;;
58768;SDS011;44536;47.474;19.056;2023-01-08T07:03:37;42.00;;;19.85;;
58768;SDS011;44536;47.474;19.056;2023-01-08T07:06:40;39.72;;;18.73;;
58768;SDS011;44536;47.474;19.056;2023-01-08T07:09:42;38.33;;;19.48;;
58768;SDS011;44536;47.474;19.056;2023-01-08T07:12:45;36.80;;;20.73;;
58768;SDS011;44536;47.474;19.056;2023-01-08T07:15:47;37.17;;;19.02;;
58768;SDS011;44536;47.474;19.056;2023-01-08T07:18:49;39.83;;;20.30;;
58768;SDS011;44536;47.474;19.056;2023-01-08T07:21:52;37.42;;;18.05;;
58768;SDS011;44536;47.474;19.056;2023-01-08T07:24:54;41.05;;;20.45;;
58768;SDS011;44536;47.474;19.056;2023-01-08T07:27:57;40.72;;;20.55;;
58768;SDS011;44536;47.474;19.056;2023-01-08T07:31:06;41.97;;;20.40;;
58768;SDS011;44536;47.474;19.056;2023-01-08T07:34:09;34.80;;;21.48;;
58768;SDS011;44536;47.474;19.056;2023-01-08T07:37:11;34.97;;;20.97;;
58768;SDS011;44536;47.474;19.056;2023-01-08T07:40:14;38.03;;;19.77;;
58768;SDS011;44536;47.474;19.056;2023-01-08T07:43:16;40.28;;;21.48;;
58768;SDS011;44536;47.474;19.056;2023-01-08T07:46:18;36.70;;;20.75;;
58768;SDS011;44536;47.474;19.056;2023-01-08T07:49:21;33.97;;;21.17;;
58768;SDS011;44536;47.474;19.056;2023-01-08T07:52:24;35.95;;;19.27;;
58768;SDS011;44536;47.474;19.056;2023-01-08T07:55:27;36.05;;;20.67;;
58768;SDS011;44536;47.474;19.056;2023-01-08T07:58:30;39.67;;;21.45;;
58768;SDS011;44536;47.474;19.056;2023-01-08T08:01:33;37.97;;;21.60;;
58768;SDS011;44536;47.474;19.056;2023-01-08T08:04:36;30.70;;;17.37;;
58768;SDS011;44536;47.474;19.056;2023-01-08T08:07:38;34.92;;;18.45;;
58768;SDS011;44536;47.474;19.056;2023-01-08T08:10:41;33.40;;;19.00;;
58768;SDS011;44536;47.474;19.056;2023-01-08T08:13:44;28.25;;;18.17;;
58768;SDS011;44536;47.474;19.056;2023-01-08T08:16:48;31.67;;;19.23;;
58768;SDS011;44536;47.474;19.056;2023-01-08T08:19:50;35.47;;;20.40;;
58768;SDS011;44536;47.474;19.056;2023-01-08T08:23:27;31.73;;;18.02;;
58768;SDS011;44536;47.474;19.056;2023-01-08T08:26:22;37.03;;;17.87;;
58768;SDS011;44536;47.474;19.056;2023-01-08T08:29:24;34.33;;;20.00;;
58768;SDS011;44536;47.474;19.056;2023-01-08T08:32:26;32.22;;;19.30;;
58768;SDS011;44536;47.474;19.056;2023-01-08T08:35:30;34.13;;;19.75;;
58768;SDS011;44536;47.474;19.056;2023-01-08T08:38:33;31.35;;;18.30;;
58768;SDS011;44536;47.474;19.056;2023-01-08T08:41:37;31.55;;;17.67;;
58768;SDS011;44536;47.474;19.056;2023-01-08T08:44:39;37.47;;;21.15;;
58768;SDS011;44536;47.474;19.056;2023-01-08T08:47:44;34.00;;;19.37;;
58768;SDS011;44536;47.474;19.056;2023-01-08T08:50:46;32.20;;;20.10;;
58768;SDS011;44536;47.474;19.056;2023-01-08T08:53:48;32.58;;;19.60;;
58768;SDS011;44536;47.474;19.056;2023-01-08T08:56:51;39.78;;;21.65;;
58768;SDS011;44536;47.474;19.056;2023-01-08T08:59:53;36.13;;;19.55;;
58768;SDS011;44536;47.474;19.056;2023-01-08T09:02:55;33.40;;;20.10;;
58768;SDS011;44536;47.474;19.056;2023-01-08T09:05:58;35.67;;;20.03;;
58768;SDS011;44536;47.474;19.056;2023-01-08T09:09:00;36.22;;;17.85;;
58768;SDS011;44536;47.474;19.056;2023-01-08T09:12:03;29.30;;;17.33;;
58768;SDS011;44536;47.474;19.056;2023-01-08T09:15:06;36.22;;;18.02;;
58768;SDS011;44536;47.474;19.056;2023-01-08T09:18:09;30.88;;;18.52;;
58768;SDS011;44536;47.474;19.056;2023-01-08T09:21:11;32.63;;;17.73;;
58768;SDS011;44536;47.474;19.056;2023-01-08T09:24:14;30.70;;;18.02;;
58768;SDS011;44536;47.474;19.056;2023-01-08T09:27:16;28.65;;;18.67;;
58768;SDS011;44536;47.474;19.056;2023-01-08T09:30:19;33.47;;;19.10;;
58768;SDS011;44536;47.474;19.056;2023-01-08T09:33:21;31.30;;;18.52;;
58768;SDS011;44536;47.474;19.056;2023-01-08T09:36:23;32.70;;;19.83;;
58768;SDS011;44536;47.474;19.056;2023-01-08T09:39:26;31.15;;;16.92;;
58768;SDS011;44536;47.474;19.056;2023-01-08T09:42:28;29.13;;;18.53;;
58768;SDS011;44536;47.474;19.056;2023-01-08T09:48:40;32.72;;;17.75;;
58768;SDS011;44536;47.474;19.056;2023-01-08T09:51:43;28.67;;;16.90;;
58768;SDS011;44536;47.474;19.056;2023-01-08T09:54:45;30.40;;;17.37;;
58768;SDS011;44536;47.474;19.056;2023-01-08T09:57:47;32.60;;;18.35;;
58768;SDS011;44536;47.474;19.056;2023-01-08T10:00:50;28.80;;;15.80;;
58768;SDS011;44536;47.474;19.056;2023-01-08T10:04:05;29.17;;;18.98;;
58768;SDS011;44536;47.474;19.056;2023-01-08T10:07:19;26.98;;;15.60;;
58768;SDS011;44536;47.474;19.056;2023-01-08T10:10:32;29.98;;;20.40;;
58768;SDS011;44536;47.474;19.056;2023-01-08T10:13:38;27.30;;;18.27;;
58768;SDS011;44536;47.474;19.056;2023-01-08T10:16:41;34.95;;;22.15;;
58768;SDS011;44536;47.474;19.056;2023-01-08T10:19:47;37.47;;;20.23;;
58768;SDS011;44536;47.474;19.056;2023-01-08T10:22:49;26.35;;;16.45;;
58768;SDS011;44536;47.474;19.056;2023-01-08T10:25:59;29.12;;;17.73;;
58768;SDS011;44536;47.474;19.056;2023-01-08T10:32:21;30.55;;;18.33;;
58768;SDS011;44536;47.474;19.056;2023-01-08T10:35:32;27.70;;;19.00;;
58768;SDS011;44536;47.474;19.056;2023-01-08T10:41:51;30.37;;;19.02;;
58768;SDS011;44536;47.474;19.056;2023-01-08T10:44:58;28.20;;;17.40;;
58768;SDS011;44536;47.474;19.056;2023-01-08T10:48:04;29.45;;;18.85;;
58768;SDS011;44536;47.474;19.056;2023-01-08T10:54:31;25.10;;;18.48;;
58768;SDS011;44536;47.474;19.056;2023-01-08T10:57:35;36.35;;;19.27;;
58768;SDS011;44536;47.474;19.056;2023-01-08T11:00:38;27.70;;;18.83;;
58768;SDS011;44536;47.474;19.056;2023-01-08T11:03:41;30.48;;;16.92;;
58768;SDS011;44536;47.474;19.056;2023-01-08T11:06:45;28.87;;;19.87;;
58768;SDS011;44536;47.474;19.056;2023-01-08T11:09:49;28.50;;;16.27;;
58768;SDS011;44536;47.474;19.056;2023-01-08T11:12:53;27.45;;;18.30;;
58768;SDS011;44536;47.474;19.056;2023-01-08T11:16:08;28.75;;;18.20;;
58768;SDS011;44536;47.474;19.056;2023-01-08T11:19:15;29.02;;;19.95;;
58768;SDS011;44536;47.474;19.056;2023-01-08T11:22:21;27.75;;;17.98;;
58768;SDS011;44536;47.474;19.056;2023-01-08T11:25:26;28.45;;;20.10;;
58768;SDS011;44536;47.474;19.056;2023-01-08T11:35:39;25.23;;;18.67;;
58768;SDS011;44536;47.474;19.056;2023-01-08T11:38:47;29.58;;;17.95;;
58768;SDS011;44536;47.474;19.056;2023-01-08T11:51:42;28.95;;;17.35;;
58768;SDS011;44536;47.474;19.056;2023-01-08T12:01:55;29.98;;;19.42;;
58768;SDS011;44536;47.474;19.056;2023-01-08T12:08:57;33.50;;;21.08;;
58768;SDS011;44536;47.474;19.056;2023-01-08T12:32:31;27.52;;;18.70;;
58768;SDS011;44536;47.474;19.056;2023-01-08T12:35:43;28.42;;;18.87;;
58768;SDS011;44536;47.474;19.056;2023-01-08T12:39:36;30.02;;;19.83;;
58768;SDS011;44536;47.474;19.056;2023-01-08T12:42:23;25.85;;;18.35;;
58768;SDS011;44536;47.474;19.056;2023-01-08T12:45:31;28.92;;;19.90;;
58768;SDS011;44536;47.474;19.056;2023-01-08T12:48:36;27.20;;;19.15;;
58768;SDS011;44536;47.474;19.056;2023-01-08T12:51:47;26.92;;;19.25;;
58768;SDS011;44536;47.474;19.056;2023-01-08T12:55:16;27.05;;;19.30;;
58768;SDS011;44536;47.474;19.056;2023-01-08T12:58:40;30.00;;;20.42;;
58768;SDS011;44536;47.474;19.056;2023-01-08T13:08:33;27.50;;;18.70;;
58768;SDS011;44536;47.474;19.056;2023-01-08T13:11:38;27.87;;;20.50;;
58768;SDS011;44536;47.474;19.056;2023-01-08T13:14:44;31.75;;;18.77;;
58768;SDS011;44536;47.474;19.056;2023-01-08T13:18:37;32.65;;;19.90;;
58768;SDS011;44536;47.474;19.056;2023-01-08T13:21:25;32.80;;;20.62;;
58768;SDS011;44536;47.474;19.056;2023-01-08T13:27:38;28.62;;;20.23;;
58768;SDS011;44536;47.474;19.056;2023-01-08T13:30:41;31.40;;;21.37;;
58768;SDS011;44536;47.474;19.056;2023-01-08T13:36:57;29.33;;;19.08;;
58768;SDS011;44536;47.474;19.056;2023-01-08T13:40:01;32.80;;;20.58;;
58768;SDS011;44536;47.474;19.056;2023-01-08T13:43:12;30.45;;;19.27;;
58768;SDS011;44536;47.474;19.056;2023-01-08T13:46:17;32.20;;;21.25;;
58768;SDS011;44536;47.474;19.056;2023-01-08T13:52:45;29.25;;;20.73;;
58768;SDS011;44536;47.474;19.056;2023-01-08T13:55:58;31.37;;;20.65;;
58768;SDS011;44536;47.474;19.056;2023-01-08T13:59:02;28.42;;;19.98;;
58768;SDS011;44536;47.474;19.056;2023-01-08T14:02:20;33.72;;;19.90;;
58768;SDS011;44536;47.474;19.056;2023-01-08T14:05:35;33.10;;;22.70;;
58768;SDS011;44536;47.474;19.056;2023-01-08T14:08:50;35.83;;;21.23;;
58768;SDS011;44536;47.474;19.056;2023-01-08T14:11:54;27.52;;;19.30;;
58768;SDS011;44536;47.474;19.056;2023-01-08T14:14:56;32.05;;;21.20;;
58768;SDS011;44536;47.474;19.056;2023-01-08T14:18:02;34.25;;;24.08;;
58768;SDS011;44536;47.474;19.056;2023-01-08T14:24:10;30.08;;;20.90;;
58768;SDS011;44536;47.474;19.056;2023-01-08T14:27:21;31.37;;;20.70;;
58768;SDS011;44536;47.474;19.056;2023-01-08T14:30:26;31.48;;;21.27;;
58768;SDS011;44536;47.474;19.056;2023-01-08T14:33:29;31.87;;;20.85;;
58768;SDS011;44536;47.474;19.056;2023-01-08T14:36:35;38.78;;;23.27;;
58768;SDS011;44536;47.474;19.056;2023-01-08T14:39:37;34.13;;;20.08;;
58768;SDS011;44536;47.474;19.056;2023-01-08T14:42:40;32.53;;;22.42;;
58768;SDS011;44536;47.474;19.056;2023-01-08T14:45:48;35.72;;;23.42;;
58768;SDS011;44536;47.474;19.056;2023-01-08T14:48:53;39.58;;;22.92;;
58768;SDS011;44536;47.474;19.056;2023-01-08T14:51:57;34.78;;;23.65;;
58768;SDS011;44536;47.474;19.056;2023-01-08T14:55:02;38.00;;;22.92;;
58768;SDS011;44536;47.474;19.056;2023-01-08T14:58:07;38.38;;;25.45;;
58768;SDS011;44536;47.474;19.056;2023-01-08T15:01:25;34.40;;;22.50;;
58768;SDS011;44536;47.474;19.056;2023-01-08T15:04:29;42.50;;;25.58;;
58768;SDS011;44536;47.474;19.056;2023-01-08T15:07:32;37.80;;;24.07;;
58768;SDS011;44536;47.474;19.056;2023-01-08T15:10:38;35.20;;;23.33;;
58768;SDS011;44536;47.474;19.056;2023-01-08T15:13:42;41.15;;;28.15;;
58768;SDS011;44536;47.474;19.056;2023-01-08T15:16:45;42.88;;;26.77;;
58768;SDS011;44536;47.474;19.056;2023-01-08T15:19:55;35.50;;;22.95;;
58768;SDS011;44536;47.474;19.056;2023-01-08T15:23:00;40.05;;;26.08;;
58768;SDS011;44536;47.474;19.056;2023-01-08T15:26:02;40.12;;;24.60;;
58768;SDS011;44536;47.474;19.056;2023-01-08T15:29:05;38.85;;;25.62;;
58768;SDS011;44536;47.474;19.056;2023-01-08T15:35:16;42.55;;;26.95;;
58768;SDS011;44536;47.474;19.056;2023-01-08T15:38:19;45.58;;;29.65;;
58768;SDS011;44536;47.474;19.056;2023-01-08T15:41:24;45.50;;;27.50;;
58768;SDS011;44536;47.474;19.056;2023-01-08T15:44:45;43.22;;;27.67;;
58768;SDS011;44536;47.474;19.056;2023-01-08T15:47:48;48.13;;;30.95;;
58768;SDS011;44536;47.474;19.056;2023-01-08T15:50:50;47.62;;;29.27;;
58768;SDS011;44536;47.474;19.056;2023-01-08T15:56:56;43.03;;;28.83;;
58768;SDS011;44536;47.474;19.056;2023-01-08T15:59:58;44.63;;;27.70;;
58768;SDS011;44536;47.474;19.056;2023-01-08T16:03:02;45.22;;;30.88;;
58768;SDS011;44536;47.474;19.056;2023-01-08T16:06:05;49.85;;;29.20;;
58768;SDS011;44536;47.474;19.056;2023-01-08T16:09:09;49.90;;;29.40;;
58768;SDS011;44536;47.474;19.056;2023-01-08T16:12:11;45.85;;;29.92;;
58768;SDS011;44536;47.474;19.056;2023-01-08T16:15:14;50.08;;;31.92;;
58768;SDS011;44536;47.474;19.056;2023-01-08T16:21:19;44.95;;;30.50;;
58768;SDS011;44536;47.474;19.056;2023-01-08T16:24:22;49.45;;;30.98;;
58768;SDS011;44536;47.474;19.056;2023-01-08T16:27:24;45.92;;;29.83;;
58768;SDS011;44536;47.474;19.056;2023-01-08T16:30:26;49.78;;;30.33;;
58768;SDS011;44536;47.474;19.056;2023-01-08T16:33:28;48.92;;;30.40;;
58768;SDS011;44536;47.474;19.056;2023-01-08T16:36:31;46.22;;;30.75;;
58768;SDS011;44536;47.474;19.056;2023-01-08T16:39:34;49.10;;;29.73;;
58768;SDS011;44536;47.474;19.056;2023-01-08T16:42:36;48.17;;;29.25;;
58768;SDS011;44536;47.474;19.056;2023-01-08T16:45:42;48.95;;;28.85;;
58768;SDS011;44536;47.474;19.056;2023-01-08T16:48:47;47.28;;;29.73;;
58768;SDS011;44536;47.474;19.056;2023-01-08T16:51:49;43.58;;;29.73;;
58768;SDS011;44536;47.474;19.056;2023-01-08T16:54:52;51.95;;;29.92;;
58768;SDS011;44536;47.474;19.056;2023-01-08T16:57:54;47.45;;;30.27;;
58768;SDS011;44536;47.474;19.056;2023-01-08T17:00:57;48.72;;;28.75;;
58768;SDS011;44536;47.474;19.056;2023-01-08T17:04:00;47.72;;;28.62;;
58768;SDS011;44536;47.474;19.056;2023-01-08T17:07:02;37.10;;;25.90;;
58768;SDS011;44536;47.474;19.056;2023-01-08T17:10:05;46.22;;;29.67;;
58768;SDS011;44536;47.474;19.056;2023-01-08T17:13:08;47.90;;;30.08;;
58768;SDS011;44536;47.474;19.056;2023-01-08T17:16:11;46.83;;;29.97;;
58768;SDS011;44536;47.474;19.056;2023-01-08T17:19:15;43.47;;;28.58;;
58768;SDS011;44536;47.474;19.056;2023-01-08T17:22:17;44.97;;;29.77;;
58768;SDS011;44536;47.474;19.056;2023-01-08T17:25:20;44.72;;;30.25;;
58768;SDS011;44536;47.474;19.056;2023-01-08T17:28:22;39.33;;;27.52;;
58768;SDS011;44536;47.474;19.056;2023-01-08T17:31:31;45.72;;;28.17;;
58768;SDS011;44536;47.474;19.056;2023-01-08T17:34:40;44.35;;;27.73;;
58768;SDS011;44536;47.474;19.056;2023-01-08T17:37:43;47.90;;;29.97;;
58768;SDS011;44536;47.474;19.056;2023-01-08T17:40:45;40.95;;;28.33;;
58768;SDS011;44536;47.474;19.056;2023-01-08T17:43:48;52.50;;;29.85;;
58768;SDS011;44536;47.474;19.056;2023-01-08T17:46:50;40.20;;;26.00;;
58768;SDS011;44536;47.474;19.056;2023-01-08T17:49:53;47.77;;;27.70;;
58768;SDS011;44536;47.474;19.056;2023-01-08T17:52:57;46.47;;;27.37;;
58768;SDS011;44536;47.474;19.056;2023-01-08T17:56:00;42.08;;;27.20;;
58768;SDS011;44536;47.474;19.056;2023-01-08T17:59:06;44.22;;;29.50;;
58768;SDS011;44536;47.474;19.056;2023-01-08T18:02:09;41.17;;;26.90;;
58768;SDS011;44536;47.474;19.056;2023-01-08T18:05:17;41.47;;;26.30;;
58768;SDS011;44536;47.474;19.056;2023-01-08T18:08:19;37.88;;;26.15;;
58768;SDS011;44536;47.474;19.056;2023-01-08T18:11:21;43.63;;;26.33;;
58768;SDS011;44536;47.474;19.056;2023-01-08T18:14:26;38.58;;;26.67;;
58768;SDS011;44536;47.474;19.056;2023-01-08T18:17:29;36.08;;;26.67;;
58768;SDS011;44536;47.474;19.056;2023-01-08T18:20:32;45.75;;;27.20;;
58768;SDS011;44536;47.474;19.056;2023-01-08T18:23:34;42.13;;;25.35;;
58768;SDS011;44536;47.474;19.056;2023-01-08T18:26:36;44.92;;;28.30;;
58768;SDS011;44536;47.474;19.056;2023-01-08T18:29:39;40.73;;;26.73;;
58768;SDS011;44536;47.474;19.056;2023-01-08T18:32:41;35.80;;;23.17;;
58768;SDS011;44536;47.474;19.056;2023-01-08T18:35:44;42.78;;;28.10;;
58768;SDS011;44536;47.474;19.056;2023-01-08T18:38:47;38.63;;;27.85;;
58768;SDS011;44536;47.474;19.056;2023-01-08T18:41:50;38.53;;;23.90;;
58768;SDS011;44536;47.474;19.056;2023-01-08T18:45:11;44.55;;;27.48;;
58768;SDS011;44536;47.474;19.056;2023-01-08T18:48:15;37.75;;;23.45;;
58768;SDS011;44536;47.474;19.056;2023-01-08T18:51:18;39.58;;;25.98;;
58768;SDS011;44536;47.474;19.056;2023-01-08T18:54:21;37.42;;;23.73;;
58768;SDS011;44536;47.474;19.056;2023-01-08T18:57:23;39.38;;;23.77;;
58768;SDS011;44536;47.474;19.056;2023-01-08T19:00:26;38.28;;;25.50;;
58768;SDS011;44536;47.474;19.056;2023-01-08T19:03:28;41.80;;;27.02;;
58768;SDS011;44536;47.474;19.056;2023-01-08T19:06:31;40.53;;;25.40;;
58768;SDS011;44536;47.474;19.056;2023-01-08T19:09:33;39.25;;;25.52;;
58768;SDS011;44536;47.474;19.056;2023-01-08T19:12:36;34.88;;;24.58;;
58768;SDS011;44536;47.474;19.056;2023-01-08T19:15:39;40.53;;;24.63;;
58768;SDS011;44536;47.474;19.056;2023-01-08T19:18:42;38.03;;;25.63;;
58768;SDS011;44536;47.474;19.056;2023-01-08T19:21:44;36.10;;;25.05;;
58768;SDS011;44536;47.474;19.056;2023-01-08T19:24:46;35.92;;;23.87;;
58768;SDS011;44536;47.474;19.056;2023-01-08T19:27:48;37.97;;;24.52;;